createdAt,value
2018-06-16T00:00:05.349Z,100320.69
2018-06-16T00:02:36.004Z,100327.23
2018-06-16T00:05:06.842Z,100322.01
2018-06-16T00:07:37.509Z,100329.19
2018-06-16T00:10:08.243Z,100334.16
2018-06-16T00:12:38.890Z,100332.47
2018-06-16T00:15:09.532Z,100326.99
2018-06-16T00:17:40.191Z,100329.28
2018-06-16T00:20:10.866Z,100329.53
2018-06-16T00:22:41.479Z,100329.43
2018-06-16T00:25:12.236Z,100329.05
2018-06-16T00:27:42.847Z,100332.20
2018-06-16T00:30:13.435Z,100330.02
2018-06-16T00:32:44.089Z,100325.18
2018-06-16T00:35:14.747Z,100323.12
2018-06-16T00:37:45.380Z,100322.27
2018-06-16T00:40:16.011Z,100314.00
2018-06-16T00:42:46.657Z,100318.75
2018-06-16T00:45:17.292Z,100313.52
2018-06-16T00:47:47.903Z,100318.25
2018-06-16T00:50:18.554Z,100313.53
2018-06-16T00:52:49.239Z,100314.13
2018-06-16T00:55:19.882Z,100321.05
2018-06-16T00:57:51.327Z,100324.07
2018-06-16T01:00:22.050Z,100323.32
2018-06-16T01:02:52.900Z,100318.94
2018-06-16T01:05:23.213Z,100319.68
2018-06-16T01:07:53.730Z,100325.97
2018-06-16T01:10:24.381Z,100323.81
2018-06-16T01:12:55.009Z,100321.72
2018-06-16T01:15:25.666Z,100321.84
2018-06-16T01:17:56.311Z,100324.23
2018-06-16T01:20:26.939Z,100322.73
2018-06-16T01:22:57.590Z,100323.95
2018-06-16T01:25:28.286Z,100326.36
2018-06-16T01:27:58.907Z,100328.80
2018-06-16T01:30:29.532Z,100321.41
2018-06-16T01:33:00.175Z,100319.19
2018-06-16T01:35:30.841Z,100319.44
2018-06-16T01:38:01.446Z,100312.52
2018-06-16T01:40:32.086Z,100310.23
2018-06-16T01:43:02.724Z,100316.77
2018-06-16T01:45:33.352Z,100315.41
2018-06-16T01:48:03.999Z,100317.08
2018-06-16T01:50:34.647Z,100320.56
2018-06-16T01:53:05.289Z,100316.21
2018-06-16T01:55:35.903Z,100317.80
2018-06-16T01:58:06.559Z,100312.95
2018-06-16T02:00:37.174Z,100314.53
2018-06-16T02:03:07.859Z,100316.81
2018-06-16T02:05:38.512Z,100315.70
2018-06-16T02:08:09.223Z,100314.63
2018-06-16T02:10:39.850Z,100314.16
2018-06-16T02:13:10.493Z,100315.23
2018-06-16T02:15:41.293Z,100313.55
2018-06-16T02:18:11.950Z,100313.98
2018-06-16T02:20:42.646Z,100313.76
2018-06-16T02:23:13.318Z,100316.98
2018-06-16T02:25:43.913Z,100318.09
2018-06-16T02:28:14.551Z,100313.20
2018-06-16T02:30:45.162Z,100318.87
2018-06-16T02:33:15.783Z,100312.84
2018-06-16T02:35:46.416Z,100310.52
2018-06-16T02:38:17.068Z,100303.60
2018-06-16T02:40:47.703Z,100305.75
2018-06-16T02:43:18.371Z,100304.89
2018-06-16T02:45:49.001Z,100309.27
2018-06-16T02:48:19.640Z,100309.61
2018-06-16T02:50:50.234Z,100301.83
2018-06-16T02:53:20.909Z,100300.14
2018-06-16T02:55:51.574Z,100305.47
2018-06-16T02:58:22.208Z,100299.16
2018-06-16T03:00:52.837Z,100301.34
2018-06-16T03:03:23.570Z,100297.27
2018-06-16T03:05:54.184Z,100301.90
2018-06-16T03:08:24.836Z,100300.14
2018-06-16T03:10:55.446Z,100304.66
2018-06-16T03:13:26.088Z,100305.47
2018-06-16T03:15:56.691Z,100302.67
2018-06-16T03:18:27.383Z,100296.52
2018-06-16T03:20:57.972Z,100298.19
2018-06-16T03:23:28.664Z,100296.12
2018-06-16T03:25:59.282Z,100300.98
2018-06-16T03:28:29.880Z,100304.25
2018-06-16T03:31:00.512Z,100298.31
2018-06-16T03:33:31.227Z,100300.12
2018-06-16T03:36:01.858Z,100300.33
2018-06-16T03:38:32.481Z,100300.73
2018-06-16T03:41:03.052Z,100300.26
2018-06-16T03:43:33.684Z,100301.12
2018-06-16T03:46:04.304Z,100292.52
2018-06-16T03:48:34.919Z,100291.74
2018-06-16T03:51:05.563Z,100295.53
2018-06-16T03:53:36.181Z,100295.31
2018-06-16T03:56:06.826Z,100294.93
2018-06-16T03:58:37.471Z,100293.73
2018-06-16T04:01:08.091Z,100294.55
2018-06-16T04:03:38.714Z,100293.95
2018-06-16T04:06:09.348Z,100299.08
2018-06-16T04:08:39.988Z,100295.47
2018-06-16T04:11:10.627Z,100298.94
2018-06-16T04:13:41.240Z,100294.13
2018-06-16T04:16:11.905Z,100291.05
2018-06-16T04:18:42.566Z,100299.91
2018-06-16T04:21:13.170Z,100303.57
2018-06-16T04:23:43.758Z,100303.92
2018-06-16T04:26:14.479Z,100306.55
2018-06-16T04:28:45.049Z,100299.41
2018-06-16T04:31:15.659Z,100298.69
2018-06-16T04:33:46.279Z,100301.35
2018-06-16T04:36:16.978Z,100298.56
2018-06-16T04:38:47.682Z,100302.61
2018-06-16T04:41:18.363Z,100305.45
2018-06-16T04:43:49.059Z,100304.47
2018-06-16T04:46:19.677Z,100308.00
2018-06-16T04:48:50.280Z,100311.31
2018-06-16T04:51:20.881Z,100302.63
2018-06-16T04:53:51.587Z,100301.81
2018-06-16T04:56:22.233Z,100299.91
2018-06-16T04:58:53.214Z,100299.08
2018-06-16T05:01:23.871Z,100294.38
2018-06-16T05:03:54.555Z,100294.63
2018-06-16T05:06:25.234Z,100301.23
2018-06-16T05:08:55.886Z,100294.08
2018-06-16T05:11:26.543Z,100300.88
2018-06-16T05:13:57.182Z,100292.40
2018-06-16T05:16:27.804Z,100292.03
2018-06-16T05:18:58.425Z,100290.59
2018-06-16T05:21:29.034Z,100291.43
2018-06-16T05:23:59.689Z,100291.45
2018-06-16T05:26:30.320Z,100292.53
2018-06-16T05:29:01.007Z,100288.77
2018-06-16T05:31:31.600Z,100293.24
2018-06-16T05:34:02.210Z,100289.25
2018-06-16T05:36:32.872Z,100285.84
2018-06-16T05:39:03.647Z,100296.64
2018-06-16T05:41:34.292Z,100288.84
2018-06-16T05:44:04.960Z,100294.33
2018-06-16T05:46:35.588Z,100296.13
2018-06-16T05:49:06.406Z,100292.47
2018-06-16T05:51:37.104Z,100301.31
2018-06-16T05:54:08.613Z,100294.59
2018-06-16T05:56:39.262Z,100298.36
2018-06-16T05:59:09.957Z,100299.62
2018-06-16T06:01:40.853Z,100299.52
2018-06-16T06:04:11.577Z,100302.92
2018-06-16T06:06:42.224Z,100303.25
2018-06-16T06:09:12.839Z,100309.64
2018-06-16T06:11:43.511Z,100309.73
2018-06-16T06:14:14.155Z,100315.95
2018-06-16T06:16:44.804Z,100306.58
2018-06-16T06:19:15.396Z,100313.66
2018-06-16T06:21:46.102Z,100313.91
2018-06-16T06:24:16.720Z,100310.21
2018-06-16T06:26:47.371Z,100312.88
2018-06-16T06:29:18.005Z,100324.06
2018-06-16T06:31:48.652Z,100325.30
2018-06-16T06:34:19.308Z,100326.64
2018-06-16T06:36:49.956Z,100317.60
2018-06-16T06:39:20.627Z,100326.97
2018-06-16T06:41:51.264Z,100322.66
2018-06-16T06:44:21.991Z,100324.63
2018-06-16T06:46:52.625Z,100326.98
2018-06-16T06:49:23.212Z,100325.50
2018-06-16T06:51:53.867Z,100332.89
2018-06-16T06:54:24.482Z,100327.00
2018-06-16T06:56:55.103Z,100322.41
2018-06-16T06:59:25.744Z,100325.44
2018-06-16T07:01:56.456Z,100332.67
2018-06-16T07:04:27.107Z,100328.00
2018-06-16T07:06:57.780Z,100327.30
2018-06-16T07:09:28.519Z,100326.84
2018-06-16T07:11:59.132Z,100321.94
2018-06-16T07:14:30.444Z,100331.17
2018-06-16T07:17:01.033Z,100325.73
2018-06-16T07:19:31.668Z,100323.84
2018-06-16T07:22:02.266Z,100322.88
2018-06-16T07:24:32.895Z,100321.25
2018-06-16T07:27:03.507Z,100327.54
2018-06-16T07:29:34.179Z,100327.84
2018-06-16T07:32:04.891Z,100327.69
2018-06-16T07:34:35.555Z,100322.28
2018-06-16T07:37:06.233Z,100322.94
2018-06-16T07:39:36.847Z,100331.67
2018-06-16T07:42:07.539Z,100330.05
2018-06-16T07:44:38.183Z,100325.66
2018-06-16T07:47:08.972Z,100330.67
2018-06-16T07:49:39.639Z,100338.38
2018-06-16T07:52:10.406Z,100331.23
2018-06-16T07:54:42.540Z,100343.16
2018-06-16T07:57:13.602Z,100335.16
2018-06-16T07:59:44.711Z,100326.67
2018-06-16T08:02:15.715Z,100326.22
2018-06-16T08:04:46.847Z,100325.16
2018-06-16T08:07:18.702Z,100324.77
2018-06-16T08:09:49.585Z,100326.17
2018-06-16T08:12:20.282Z,100326.77
2018-06-16T08:14:50.942Z,100330.45
2018-06-16T08:17:36.202Z,100327.26
2018-06-16T08:20:06.882Z,100330.45
2018-06-16T08:22:37.637Z,100331.42
2018-06-16T08:25:08.260Z,100331.47
2018-06-16T08:27:38.956Z,100328.23
2018-06-16T08:30:09.361Z,100329.30
2018-06-16T08:32:39.916Z,100328.23
2018-06-16T08:35:10.664Z,100332.28
2018-06-16T08:37:41.374Z,100336.13
2018-06-16T08:40:12.087Z,100332.77
2018-06-16T08:42:42.751Z,100334.02
2018-06-16T08:45:44.647Z,100339.80
2018-06-16T08:48:15.301Z,100341.61
2018-06-16T08:50:45.991Z,100342.13
2018-06-16T08:53:16.679Z,100337.81
2018-06-16T08:55:47.343Z,100336.00
2018-06-16T08:58:18.012Z,100339.58
2018-06-16T09:00:54.454Z,100338.77
2018-06-16T09:03:25.239Z,100335.14
2018-06-16T09:05:55.871Z,100327.95
2018-06-16T09:08:28.255Z,100335.83
2018-06-16T09:10:58.938Z,100338.84
2018-06-16T09:13:29.595Z,100339.47
2018-06-16T09:16:00.256Z,100335.86
2018-06-16T09:18:30.977Z,100334.42
2018-06-16T09:21:08.307Z,100332.97
2018-06-16T09:23:53.598Z,100320.73
2018-06-16T09:26:24.288Z,100328.70
2018-06-16T09:28:54.992Z,100331.19
2018-06-16T09:31:25.681Z,100328.98
2018-06-16T09:33:56.347Z,100322.56
2018-06-16T09:36:27.086Z,100324.14
2018-06-16T09:38:57.711Z,100321.70
2018-06-16T09:41:28.434Z,100319.19
2018-06-16T09:43:59.087Z,100325.81
2018-06-16T09:46:29.791Z,100332.81
2018-06-16T09:49:00.433Z,100331.98
2018-06-16T09:51:31.152Z,100326.23
2018-06-16T09:54:01.860Z,100331.92
2018-06-16T09:56:32.564Z,100323.42
2018-06-16T09:59:03.279Z,100326.68
2018-06-16T10:01:33.962Z,100333.91
2018-06-16T10:04:04.672Z,100330.94
2018-06-16T10:06:35.328Z,100329.55
2018-06-16T10:09:08.432Z,100333.84
2018-06-16T10:11:39.127Z,100329.80
2018-06-16T10:14:09.814Z,100326.00
2018-06-16T10:16:40.489Z,100323.98
2018-06-16T10:19:11.152Z,100330.22
2018-06-16T10:21:41.799Z,100327.25
2018-06-16T10:24:12.498Z,100313.91
2018-06-16T10:26:43.215Z,100319.14
2018-06-16T10:29:13.853Z,100307.63
2018-06-16T10:31:44.577Z,100310.89
2018-06-16T10:34:15.249Z,100303.35
2018-06-16T10:36:45.959Z,100307.91
2018-06-16T10:39:16.604Z,100308.62
2018-06-16T10:41:47.116Z,100304.59
2018-06-16T10:44:17.655Z,100308.84
2018-06-16T10:46:48.399Z,100302.42
2018-06-16T10:49:19.120Z,100303.95
2018-06-16T10:51:49.833Z,100300.08
2018-06-16T10:54:20.536Z,100296.86
2018-06-16T10:56:51.279Z,100303.25
2018-06-16T10:59:21.957Z,100300.55
2018-06-16T11:01:52.651Z,100297.03
2018-06-16T11:04:23.318Z,100299.38
2018-06-16T11:06:54.069Z,100293.28
2018-06-16T11:09:24.766Z,100299.88
2018-06-16T11:11:55.605Z,100301.35
2018-06-16T11:14:26.302Z,100298.80
2018-06-16T11:16:56.964Z,100294.97
2018-06-16T11:19:27.737Z,100302.22
2018-06-16T11:21:58.404Z,100282.92
2018-06-16T11:24:29.110Z,100292.23
2018-06-16T11:26:59.863Z,100291.43
2018-06-16T11:29:30.500Z,100294.31
2018-06-16T11:32:01.213Z,100291.63
2018-06-16T11:34:31.983Z,100289.94
2018-06-16T11:37:02.722Z,100288.03
2018-06-16T11:39:33.388Z,100285.32
2018-06-16T11:42:04.113Z,100283.30
2018-06-16T11:44:34.823Z,100279.42
2018-06-16T11:47:05.597Z,100291.39
2018-06-16T11:49:36.300Z,100286.52
2018-06-16T11:52:06.954Z,100284.70
2018-06-16T11:54:37.634Z,100275.77
2018-06-16T11:57:08.396Z,100265.62
2018-06-16T11:59:39.111Z,100268.16
2018-06-16T12:02:09.889Z,100270.47
2018-06-16T12:04:40.557Z,100256.92
2018-06-16T12:07:11.224Z,100261.03
2018-06-16T12:09:41.876Z,100263.60
2018-06-16T12:12:13.130Z,100258.88
2018-06-16T12:14:43.804Z,100251.80
2018-06-16T12:17:14.483Z,100250.27
2018-06-16T12:19:45.171Z,100246.22
2018-06-16T12:22:15.844Z,100234.18
2018-06-16T12:24:46.487Z,100243.77
2018-06-16T12:27:17.160Z,100241.74
2018-06-16T12:29:47.867Z,100245.50
2018-06-16T12:32:18.512Z,100245.20
2018-06-16T12:34:49.108Z,100230.63
2018-06-16T12:37:19.862Z,100237.59
2018-06-16T12:39:50.533Z,100229.66
2018-06-16T12:42:21.264Z,100217.48
2018-06-16T12:44:51.928Z,100220.86
2018-06-16T12:47:22.602Z,100218.84
2018-06-16T12:49:53.265Z,100218.66
2018-06-16T12:52:24.450Z,100220.16
2018-06-16T12:54:55.485Z,100221.54
2018-06-16T12:57:26.097Z,100215.48
2018-06-16T12:59:56.780Z,100222.91
2018-06-16T13:02:27.450Z,100225.59
2018-06-16T13:04:58.102Z,100226.95
2018-06-16T13:07:28.743Z,100219.86
2018-06-16T13:09:59.430Z,100224.38
2018-06-16T13:12:30.070Z,100222.00
2018-06-16T13:15:00.747Z,100221.33
2018-06-16T13:17:31.376Z,100228.39
2018-06-16T13:20:02.030Z,100224.78
2018-06-16T13:22:32.703Z,100231.70
2018-06-16T13:25:03.427Z,100232.48
2018-06-16T13:27:34.155Z,100226.54
2018-06-16T13:30:04.998Z,100220.80
2018-06-16T13:32:35.738Z,100211.83
2018-06-16T13:35:06.724Z,100216.55
2018-06-16T13:37:37.423Z,100212.98
2018-06-16T13:40:08.101Z,100210.48
2018-06-16T13:42:38.843Z,100211.52
2018-06-16T13:45:09.541Z,100216.02
2018-06-16T13:47:40.923Z,100215.96
2018-06-16T13:50:14.258Z,100211.41
2018-06-16T13:52:50.787Z,100208.22
2018-06-16T13:55:37.436Z,100203.13
2018-06-16T13:58:08.234Z,100201.23
2018-06-16T14:00:38.979Z,100201.38
2018-06-16T14:03:09.662Z,100200.72
2018-06-16T14:05:40.359Z,100197.03
2018-06-16T14:08:11.090Z,100192.17
2018-06-16T14:10:41.412Z,100192.34
2018-06-16T14:13:11.990Z,100188.47
2018-06-16T14:15:42.854Z,100187.28
2018-06-16T14:18:13.515Z,100190.66
2018-06-16T14:20:44.157Z,100190.78
2018-06-16T14:23:15.017Z,100190.61
2018-06-16T14:25:45.766Z,100188.58
2018-06-16T14:28:16.677Z,100173.86
2018-06-16T14:30:47.376Z,100175.14
2018-06-16T14:33:18.071Z,100171.20
2018-06-16T14:35:48.796Z,100164.77
2018-06-16T14:38:19.491Z,100163.90
2018-06-16T14:40:50.151Z,100156.72
2018-06-16T14:43:20.806Z,100154.59
2018-06-16T14:45:51.486Z,100149.92
2018-06-16T14:48:22.146Z,100151.50
2018-06-16T14:50:52.864Z,100157.67
2018-06-16T14:53:23.523Z,100151.54
2018-06-16T14:55:54.163Z,100154.66
2018-06-16T14:58:26.189Z,100151.09
2018-06-16T15:00:57.923Z,100148.14
2018-06-16T15:03:28.580Z,100150.98
2018-06-16T15:05:59.254Z,100154.22
2018-06-16T15:08:29.948Z,100154.41
2018-06-16T15:11:00.620Z,100156.41
2018-06-16T15:13:31.308Z,100152.19
2018-06-16T15:16:01.999Z,100158.02
2018-06-16T15:18:32.671Z,100158.02
2018-06-16T15:21:03.445Z,100154.20
2018-06-16T15:23:34.836Z,100149.89
2018-06-16T15:26:05.562Z,100140.45
2018-06-16T15:28:36.215Z,100139.47
2018-06-16T15:31:37.832Z,100138.66
2018-06-16T15:34:08.687Z,100139.02
2018-06-16T15:36:39.433Z,100129.79
2018-06-16T15:39:11.212Z,100140.53
2018-06-16T15:41:41.904Z,100132.95
2018-06-16T15:44:12.604Z,100132.44
2018-06-16T15:46:43.374Z,100130.91
2018-06-16T15:49:14.146Z,100126.88
2018-06-16T15:51:44.836Z,100122.84
2018-06-16T15:54:15.565Z,100117.61
2018-06-16T15:56:46.284Z,100120.66
2018-06-16T15:59:17.715Z,100124.20
2018-06-16T16:01:48.458Z,100112.39
2018-06-16T16:04:19.169Z,100113.92
2018-06-16T16:06:49.853Z,100106.33
2018-06-16T16:09:20.587Z,100104.81
2018-06-16T16:11:51.280Z,100104.43
2018-06-16T16:14:21.996Z,100102.39
2018-06-16T16:16:52.847Z,100102.41
2018-06-16T16:19:23.566Z,100102.45
2018-06-16T16:21:54.266Z,100106.01
2018-06-16T16:24:24.896Z,100099.92
2018-06-16T16:26:55.581Z,100111.52
2018-06-16T16:29:26.278Z,100104.77
2018-06-16T16:31:57.016Z,100095.80
2018-06-16T16:34:27.710Z,100094.63
2018-06-16T16:36:58.426Z,100094.41
2018-06-16T16:39:29.140Z,100096.38
2018-06-16T16:41:59.782Z,100099.29
2018-06-16T16:44:30.480Z,100097.23
2018-06-16T16:47:01.179Z,100100.84
2018-06-16T16:49:31.821Z,100102.20
2018-06-16T16:52:02.434Z,100101.13
2018-06-16T16:54:33.097Z,100103.30
2018-06-16T16:57:03.733Z,100111.96
2018-06-16T16:59:34.463Z,100119.91
2018-06-16T17:02:05.158Z,100128.14
2018-06-16T17:04:35.794Z,100154.56
2018-06-16T17:07:06.475Z,100196.42
2018-06-16T17:09:37.185Z,100184.06
2018-06-16T17:12:07.855Z,100194.81
2018-06-16T17:14:38.546Z,100187.35
2018-06-16T17:17:09.245Z,100202.45
2018-06-16T17:19:39.893Z,100195.67
2018-06-16T17:22:10.500Z,100205.56
2018-06-16T17:24:41.222Z,100198.60
2018-06-16T17:27:11.850Z,100197.83
2018-06-16T17:29:42.515Z,100192.66
2018-06-16T17:32:13.164Z,100184.33
2018-06-16T17:34:43.834Z,100186.70
2018-06-16T17:37:14.574Z,100194.11
2018-06-16T17:39:45.245Z,100192.24
2018-06-16T17:42:15.954Z,100189.56
2018-06-16T17:44:46.647Z,100200.61
2018-06-16T17:47:17.332Z,100186.59
2018-06-16T17:49:48.127Z,100181.34
2018-06-16T17:52:18.794Z,100176.55
2018-06-16T17:54:49.632Z,100173.95
2018-06-16T17:57:20.406Z,100175.06
2018-06-16T17:59:51.284Z,100171.42
2018-06-16T18:02:22.161Z,100169.23
2018-06-16T18:04:52.866Z,100171.12
2018-06-16T18:07:23.509Z,100177.97
2018-06-16T18:09:54.218Z,100179.16
2018-06-16T18:12:24.910Z,100180.94
2018-06-16T18:14:56.071Z,100179.72
2018-06-16T18:17:26.791Z,100174.36
2018-06-16T18:19:57.460Z,100173.25
2018-06-16T18:22:28.117Z,100176.81
2018-06-16T18:24:58.802Z,100176.48
2018-06-16T18:27:29.513Z,100175.48
2018-06-16T18:30:00.215Z,100178.78
2018-06-16T18:32:30.959Z,100182.95
2018-06-16T18:35:01.667Z,100177.73
2018-06-16T18:37:32.340Z,100173.84
2018-06-16T18:40:02.989Z,100178.08
2018-06-16T18:42:34.369Z,100185.56
2018-06-16T18:45:05.304Z,100182.06
2018-06-16T18:47:35.944Z,100181.55
2018-06-16T18:50:06.624Z,100182.06
2018-06-16T18:52:37.323Z,100174.25
2018-06-16T18:55:08.003Z,100182.62
2018-06-16T18:57:38.687Z,100191.32
2018-06-16T19:00:09.353Z,100188.79
2018-06-16T19:02:40.039Z,100196.59
2018-06-16T19:05:10.718Z,100202.88
2018-06-16T19:07:41.416Z,100203.44
2018-06-16T19:10:12.209Z,100211.30
2018-06-16T19:12:42.894Z,100212.50
2018-06-16T19:15:13.593Z,100227.57
2018-06-16T19:17:44.323Z,100222.67
2018-06-16T19:20:15.021Z,100229.94
2018-06-16T19:22:45.793Z,100236.08
2018-06-16T19:25:16.452Z,100247.23
2018-06-16T19:27:47.107Z,100253.25
2018-06-16T19:30:17.832Z,100256.64
2018-06-16T19:32:48.584Z,100242.27
2018-06-16T19:35:19.527Z,100240.87
2018-06-16T19:37:50.134Z,100243.47
2018-06-16T19:40:20.826Z,100243.42
2018-06-16T19:42:51.478Z,100246.61
2018-06-16T19:45:22.217Z,100248.91
2018-06-16T19:47:52.928Z,100250.72
2018-06-16T19:50:23.553Z,100253.12
2018-06-16T19:52:54.295Z,100252.73
2018-06-16T19:55:24.959Z,100259.03
2018-06-16T19:57:55.687Z,100258.03
2018-06-16T20:00:26.381Z,100255.83
2018-06-16T20:02:57.111Z,100255.09
2018-06-16T20:05:27.770Z,100261.16
2018-06-16T20:07:58.483Z,100270.29
2018-06-16T20:10:29.105Z,100267.18
2018-06-16T20:12:59.911Z,100277.65
2018-06-16T20:15:30.525Z,100277.77
2018-06-16T20:18:01.170Z,100279.17
2018-06-16T20:20:34.691Z,100279.90
2018-06-16T20:23:05.418Z,100273.20
2018-06-16T20:25:36.077Z,100275.17
2018-06-16T20:28:06.811Z,100274.69
2018-06-16T20:30:37.496Z,100279.66
2018-06-16T20:33:08.186Z,100281.37
2018-06-16T20:35:38.877Z,100283.91
2018-06-16T20:38:09.589Z,100276.88
2018-06-16T20:40:40.206Z,100289.73
2018-06-16T20:43:10.904Z,100291.36
2018-06-16T20:45:41.548Z,100290.06
2018-06-16T20:48:12.286Z,100289.69
2018-06-16T20:50:43.070Z,100301.00
2018-06-16T20:53:13.695Z,100304.77
2018-06-16T20:55:44.383Z,100301.38
2018-06-16T20:58:15.011Z,100306.73
2018-06-16T21:00:45.670Z,100305.50
2018-06-16T21:03:16.337Z,100308.06
2018-06-16T21:05:46.997Z,100303.09
2018-06-16T21:08:17.706Z,100314.30
2018-06-16T21:10:48.323Z,100311.87
2018-06-16T21:13:18.973Z,100306.28
2018-06-16T21:15:49.613Z,100305.81
2018-06-16T21:18:20.262Z,100312.63
2018-06-16T21:20:50.931Z,100305.48
2018-06-16T21:23:22.504Z,100310.22
2018-06-16T21:25:53.444Z,100311.45
2018-06-16T21:28:24.068Z,100310.20
2018-06-16T21:30:54.824Z,100307.80
2018-06-16T21:33:25.505Z,100313.14
2018-06-16T21:35:56.176Z,100314.34
2018-06-16T21:38:26.776Z,100314.84
2018-06-16T21:40:58.443Z,100312.42
2018-06-16T21:43:29.061Z,100312.29
2018-06-16T21:45:59.711Z,100313.25
2018-06-16T21:48:30.436Z,100308.76
2018-06-16T21:51:01.129Z,100311.30
2018-06-16T21:53:31.761Z,100312.29
2018-06-16T21:56:02.442Z,100315.20
2018-06-16T21:58:33.111Z,100311.45
2018-06-16T22:01:03.796Z,100316.79
2018-06-16T22:03:34.450Z,100323.47
2018-06-16T22:06:05.155Z,100330.87
2018-06-16T22:08:35.878Z,100327.85
2018-06-16T22:11:06.613Z,100330.52
2018-06-16T22:13:37.278Z,100326.27
2018-06-16T22:16:07.971Z,100322.50
2018-06-16T22:18:38.662Z,100326.16
2018-06-16T22:21:09.331Z,100330.75
2018-06-16T22:23:40.091Z,100331.86
2018-06-16T22:26:10.711Z,100331.11
2018-06-16T22:28:41.366Z,100342.05
2018-06-16T22:31:12.008Z,100330.37
2018-06-16T22:33:42.652Z,100334.78
2018-06-16T22:36:13.321Z,100335.35
2018-06-16T22:38:44.189Z,100338.78
2018-06-16T22:41:14.865Z,100335.37
2018-06-16T22:43:45.609Z,100326.36
2018-06-16T22:46:16.267Z,100334.98
2018-06-16T22:48:46.600Z,100333.66
2018-06-16T22:51:17.113Z,100329.78
2018-06-16T22:53:47.764Z,100323.58
2018-06-16T22:56:18.391Z,100325.05
2018-06-16T22:58:49.075Z,100323.95
2018-06-16T23:01:19.686Z,100321.27
2018-06-16T23:03:50.335Z,100319.59
2018-06-16T23:06:20.952Z,100323.70
2018-06-16T23:08:51.664Z,100319.48
2018-06-16T23:11:22.299Z,100320.30
2018-06-16T23:13:52.947Z,100323.47
2018-06-16T23:16:23.587Z,100319.59
2018-06-16T23:18:54.365Z,100316.30
2018-06-16T23:21:25.008Z,100319.96
2018-06-16T23:23:55.802Z,100323.97
2018-06-16T23:26:26.412Z,100325.89
2018-06-16T23:28:57.061Z,100330.16
2018-06-16T23:31:27.709Z,100336.09
2018-06-16T23:33:58.356Z,100338.17
2018-06-16T23:36:28.973Z,100338.17
2018-06-16T23:38:59.774Z,100337.78
2018-06-16T23:41:30.443Z,100335.73
2018-06-16T23:44:01.093Z,100337.42
2018-06-16T23:46:31.724Z,100338.63
2018-06-16T23:49:02.370Z,100338.02
2018-06-16T23:51:33.017Z,100343.48
2018-06-16T23:54:03.662Z,100339.84
2018-06-16T23:56:34.293Z,100347.14
2018-06-16T23:59:04.940Z,100343.59
